createdAt,value
2023-03-30T00:01:56.959Z,100227.88
2023-03-30T00:06:59.970Z,100230.22
2023-03-30T00:12:03.994Z,100235.28
2023-03-30T00:17:08.103Z,100240.94
2023-03-30T00:22:11.840Z,100241.72
2023-03-30T00:27:14.821Z,100236.16
2023-03-30T00:32:17.884Z,100222.03
2023-03-30T00:37:20.890Z,100206.53
2023-03-30T00:42:24.140Z,100209.25
2023-03-30T00:47:29.113Z,100200.75
2023-03-30T00:52:33.466Z,100196.53
2023-03-30T00:57:39.485Z,100188.34
2023-03-30T01:02:48.910Z,100221.88
2023-03-30T01:07:53.574Z,100215.94
2023-03-30T01:12:56.574Z,100186.88
2023-03-30T01:18:26.574Z,100201.09
2023-03-30T01:24:04.775Z,100206.88
2023-03-30T01:29:32.417Z,100204.75
2023-03-30T01:34:48.482Z,100184.69
2023-03-30T01:40:00.629Z,100195.63
2023-03-30T01:45:23.488Z,100200.59
2023-03-30T01:50:32.259Z,100170.63
2023-03-30T01:55:47.632Z,100175.63
2023-03-30T02:00:53.074Z,100204.72
2023-03-30T02:06:25.941Z,100201.56
2023-03-30T02:11:31.621Z,100195.28
2023-03-30T02:16:47.762Z,100210.56
2023-03-30T02:21:51.307Z,100203.63
2023-03-30T02:26:54.818Z,100200.16
2023-03-30T02:31:59.970Z,100206.09
2023-03-30T02:37:32.930Z,100192.16
2023-03-30T02:43:00.286Z,100203.25
2023-03-30T02:48:24.258Z,100165.72
2023-03-30T02:54:16.163Z,100171.38
2023-03-30T02:59:51.958Z,100155.16
2023-03-30T03:04:55.595Z,100155.41
2023-03-30T03:10:17.252Z,100167.03
2023-03-30T03:15:20.578Z,100136.56
2023-03-30T03:20:42.107Z,100147.41
2023-03-30T03:25:48.731Z,100159.81
2023-03-30T03:30:54.667Z,100145.97
2023-03-30T03:36:00.760Z,100132.06
2023-03-30T03:41:07.667Z,100141.34
2023-03-30T03:46:11.557Z,100132.31
2023-03-30T03:51:14.888Z,100113.06
2023-03-30T03:56:18.467Z,100142.72
2023-03-30T04:01:21.668Z,100140.94
2023-03-30T04:06:24.862Z,100144.22
2023-03-30T04:11:27.966Z,100135.59
2023-03-30T04:16:46.912Z,100167.81
2023-03-30T04:22:09.306Z,100162.63
2023-03-30T04:27:30.882Z,100166.09
2023-03-30T04:33:03.890Z,100180.41
2023-03-30T04:38:30.440Z,100196.25
2023-03-30T04:44:07.715Z,100216.88
2023-03-30T04:49:30.587Z,100186.88
2023-03-30T04:54:56.856Z,100205.97
2023-03-30T05:00:38.578Z,100219.53
2023-03-30T05:06:05.457Z,100187.47
2023-03-30T05:11:20.733Z,100180.19
2023-03-30T05:16:47.070Z,100189.25
2023-03-30T05:22:04.813Z,100181.06
2023-03-30T05:27:37.130Z,100180.91
2023-03-30T05:32:58.798Z,100196.53
2023-03-30T05:38:27.853Z,100189.47
2023-03-30T05:43:49.294Z,100210.31
2023-03-30T05:49:18.409Z,100206.72
2023-03-30T05:54:39.698Z,100231.78
2023-03-30T06:00:00.698Z,100215.34
2023-03-30T06:05:23.270Z,100228.28
2023-03-30T06:10:27.449Z,100218.50
2023-03-30T06:15:32.081Z,100209.09
2023-03-30T06:20:42.542Z,100203.94
2023-03-30T06:25:47.732Z,100202.44
2023-03-30T06:30:51.134Z,100198.53
2023-03-30T06:36:01.012Z,100205.09
2023-03-30T06:41:10.299Z,100194.53
2023-03-30T06:46:16.090Z,100173.34
2023-03-30T06:51:24.668Z,100177.25
2023-03-30T06:56:31.908Z,100192.38
2023-03-30T07:01:46.380Z,100176.25
2023-03-30T07:07:09.327Z,100200.25
2023-03-30T07:12:12.599Z,100194.28
2023-03-30T07:17:16.434Z,100196.41
2023-03-30T07:22:19.756Z,100197.84
2023-03-30T07:27:25.470Z,100174.31
2023-03-30T07:32:32.285Z,100172.09
2023-03-30T07:37:37.896Z,100180.94
2023-03-30T07:42:41.647Z,100177.75
2023-03-30T07:47:45.013Z,100178.38
2023-03-30T07:52:50.889Z,100175.84
2023-03-30T07:57:54.249Z,100148.41
2023-03-30T08:02:57.755Z,100171.81
2023-03-30T08:08:02.424Z,100179.97
2023-03-30T08:13:09.664Z,100206.06
2023-03-30T08:18:14.412Z,100227.66
2023-03-30T08:23:17.474Z,100190.22
2023-03-30T08:28:21.668Z,100213.84
2023-03-30T08:33:24.760Z,100230.03
2023-03-30T08:38:27.933Z,100224.91
2023-03-30T08:43:42.789Z,100237.84
2023-03-30T08:48:46.768Z,100211.28
2023-03-30T08:53:57.014Z,100217.09
2023-03-30T08:59:24.764Z,100223.22
2023-03-30T09:04:57.567Z,100225.00
2023-03-30T09:10:01.202Z,100207.19
2023-03-30T09:15:13.712Z,100214.78
2023-03-30T09:20:24.365Z,100221.84
2023-03-30T09:25:27.371Z,100226.78
2023-03-30T09:30:40.600Z,100223.00
2023-03-30T09:35:58.854Z,100229.47
2023-03-30T09:41:49.424Z,100266.59
2023-03-30T09:46:57.840Z,100283.13
2023-03-30T09:52:07.375Z,100301.19
2023-03-30T09:57:31.452Z,100294.97
2023-03-30T10:02:34.613Z,100325.16
2023-03-30T10:07:40.954Z,100316.91
2023-03-30T10:12:45.277Z,100327.13
2023-03-30T10:17:51.530Z,100320.38
2023-03-30T10:23:17.408Z,100326.06
2023-03-30T10:28:33.755Z,100334.47
2023-03-30T10:33:42.265Z,100335.78
2023-03-30T10:38:46.352Z,100336.50
2023-03-30T10:43:50.377Z,100364.13
2023-03-30T10:49:08.284Z,100377.34
2023-03-30T10:54:38.730Z,100385.00
2023-03-30T10:59:53.372Z,100382.34
2023-03-30T11:05:16.226Z,100379.34
2023-03-30T11:10:32.462Z,100407.44
2023-03-30T11:15:48.046Z,100420.34
2023-03-30T11:21:05.426Z,100450.34
2023-03-30T11:26:12.700Z,100433.19
2023-03-30T11:31:40.435Z,100466.31
2023-03-30T11:36:54.308Z,100477.69
2023-03-30T11:42:15.514Z,100475.50
2023-03-30T11:47:56.754Z,100491.47
2023-03-30T11:53:28.968Z,100483.38
2023-03-30T11:58:36.407Z,100494.13
2023-03-30T12:03:42.998Z,100491.44
2023-03-30T12:09:00.885Z,100506.22
2023-03-30T12:14:23.146Z,100496.38
2023-03-30T12:19:49.217Z,100484.72
2023-03-30T12:25:15.469Z,100514.41
2023-03-30T12:30:44.487Z,100510.88
2023-03-30T12:35:50.458Z,100537.03
2023-03-30T12:41:06.484Z,100494.03
2023-03-30T12:46:20.517Z,100529.69
2023-03-30T12:51:51.096Z,100513.53
2023-03-30T12:57:17.114Z,100537.13
2023-03-30T13:02:28.559Z,100539.75
2023-03-30T13:07:36.689Z,100548.75
2023-03-30T13:12:41.290Z,100553.56
2023-03-30T13:18:23.613Z,100564.47
2023-03-30T13:23:34.019Z,100561.06
2023-03-30T13:29:00.213Z,100589.03
2023-03-30T13:34:33.416Z,100584.16
2023-03-30T13:39:43.363Z,100603.22
2023-03-30T13:44:57.165Z,100605.53
2023-03-30T13:50:20.994Z,100589.31
2023-03-30T13:55:35.886Z,100627.22
2023-03-30T14:00:53.064Z,100606.69
2023-03-30T14:06:04.765Z,100659.06
2023-03-30T14:11:31.660Z,100657.53
2023-03-30T14:16:38.126Z,100663.28
2023-03-30T14:21:45.169Z,100697.16
2023-03-30T14:26:49.392Z,100699.94
2023-03-30T14:32:06.630Z,100686.19
2023-03-30T14:37:12.275Z,100700.91
2023-03-30T14:42:21.128Z,100681.88
2023-03-30T14:47:26.982Z,100685.22
2023-03-30T14:52:39.251Z,100696.38
2023-03-30T14:57:44.045Z,100708.03
2023-03-30T15:02:52.315Z,100697.75
2023-03-30T15:07:55.398Z,100726.56
2023-03-30T15:12:58.767Z,100754.91
2023-03-30T15:18:04.506Z,100755.66
2023-03-30T15:23:13.119Z,100751.75
2023-03-30T15:28:19.712Z,100751.00
2023-03-30T15:33:37.081Z,100773.81
2023-03-30T15:38:53.144Z,100773.00
2023-03-30T15:44:10.402Z,100778.28
2023-03-30T15:49:20.113Z,100796.63
2023-03-30T15:54:39.025Z,100813.25
2023-03-30T15:59:47.324Z,100825.56
2023-03-30T16:04:51.850Z,100809.97
2023-03-30T16:09:55.588Z,100802.19
2023-03-30T16:14:58.892Z,100805.75
2023-03-30T16:20:03.626Z,100810.19
2023-03-30T16:25:08.379Z,100825.91
2023-03-30T16:30:40.263Z,100854.38
2023-03-30T16:35:43.839Z,100865.84
2023-03-30T16:40:54.095Z,100824.28
2023-03-30T16:45:57.274Z,100855.75
2023-03-30T16:51:00.512Z,100848.09
2023-03-30T16:56:03.874Z,100856.16
2023-03-30T17:01:13.294Z,100871.75
2023-03-30T17:06:17.324Z,100877.72
2023-03-30T17:11:20.462Z,100869.94
2023-03-30T17:16:25.476Z,100873.47
2023-03-30T17:21:28.636Z,100860.56
2023-03-30T17:26:32.749Z,100873.72
2023-03-30T17:31:36.061Z,100852.13
2023-03-30T17:36:39.755Z,100886.88
2023-03-30T17:41:42.905Z,100884.25
2023-03-30T17:46:46.180Z,100882.59
2023-03-30T17:51:49.995Z,100880.03
2023-03-30T17:56:53.567Z,100869.72
2023-03-30T18:01:56.609Z,100881.03
2023-03-30T18:06:59.796Z,100888.06
2023-03-30T18:12:02.912Z,100870.69
2023-03-30T18:17:07.217Z,100875.06
2023-03-30T18:22:10.490Z,100892.47
2023-03-30T18:27:13.532Z,100905.53
2023-03-30T18:32:16.876Z,100919.44
2023-03-30T18:37:20.002Z,100932.50
2023-03-30T18:42:23.156Z,100937.72
2023-03-30T18:47:26.785Z,100923.88
2023-03-30T18:52:29.774Z,100968.19
2023-03-30T18:57:32.810Z,100956.91
2023-03-30T19:02:35.968Z,100953.44
2023-03-30T19:07:41.330Z,100963.84
2023-03-30T19:12:44.577Z,100948.22
2023-03-30T19:17:47.857Z,100976.88
2023-03-30T19:22:51.662Z,100992.56
2023-03-30T19:28:03.269Z,100976.91
2023-03-30T19:33:12.439Z,100976.03
2023-03-30T19:38:16.170Z,100964.75
2023-03-30T19:43:19.365Z,100943.03
2023-03-30T19:48:22.835Z,100966.47
2023-03-30T19:53:25.904Z,100945.63
2023-03-30T19:58:28.931Z,100931.75
2023-03-30T20:03:32.064Z,100949.97
2023-03-30T20:08:35.497Z,100956.94
2023-03-30T20:13:38.566Z,100951.72
2023-03-30T20:18:47.655Z,100930.00
2023-03-30T20:23:51.159Z,100950.84
2023-03-30T20:28:54.092Z,100925.63
2023-03-30T20:33:58.862Z,100906.56
2023-03-30T20:39:01.966Z,100910.88
2023-03-30T20:44:11.550Z,100897.88
2023-03-30T20:49:16.060Z,100912.66
2023-03-30T20:54:19.389Z,100894.38
2023-03-30T20:59:22.874Z,100905.69
2023-03-30T21:04:27.647Z,100902.22
2023-03-30T21:09:30.996Z,100910.03
2023-03-30T21:14:34.039Z,100890.06
2023-03-30T21:19:37.182Z,100902.22
2023-03-30T21:24:40.226Z,100897.03
2023-03-30T21:29:43.409Z,100890.94
2023-03-30T21:34:46.501Z,100893.56
2023-03-30T21:39:49.532Z,100917.00
2023-03-30T21:44:52.584Z,100876.16
2023-03-30T21:49:55.700Z,100879.66
2023-03-30T21:54:58.849Z,100876.16
2023-03-30T22:00:01.940Z,100878.78
2023-03-30T22:05:06.695Z,100877.06
2023-03-30T22:10:10.097Z,100857.06
2023-03-30T22:15:13.162Z,100851.84
2023-03-30T22:20:17.139Z,100873.56
2023-03-30T22:25:20.166Z,100862.28
2023-03-30T22:30:23.197Z,100852.75
2023-03-30T22:35:26.368Z,100855.34
2023-03-30T22:40:29.431Z,100859.69
2023-03-30T22:45:32.517Z,100861.41
2023-03-30T22:50:37.125Z,100876.19
2023-03-30T22:55:40.200Z,100870.09
2023-03-30T23:00:43.246Z,100842.31
2023-03-30T23:05:52.594Z,100845.81
2023-03-30T23:10:56.661Z,100830.16
2023-03-30T23:15:59.972Z,100845.78
2023-03-30T23:21:07.166Z,100824.09
2023-03-30T23:26:11.549Z,100825.84
2023-03-30T23:31:17.824Z,100827.59
2023-03-30T23:36:22.530Z,100799.81
2023-03-30T23:41:26.170Z,100803.28
2023-03-30T23:46:30.090Z,100811.09
2023-03-30T23:51:33.159Z,100818.00
2023-03-30T23:56:38.048Z,100817.16
